Time;durP1;ratioP1;P1;durP2;ratioP2;P2;SDS_P1;SDS_P2;PMS_P1;PMS_P2;Temp;Humidity;BMP_temperature;BMP_pressure;BME280_temperature;BME280_humidity;BME280_pressure;Samples;Min_cycle;Max_cycle;Signal;HPM_P1;HPM_P2
2022/08/04 00:01:50;;;;;;;;;;;;;;;24.98;41.71;99966.50;4300342;33;20040;-80
2022/08/04 00:04:50;;;;;;;;;;;;;;;24.96;41.81;99971.03;4307135;33;19992;-80
2022/08/04 00:07:22;;;;;;;;;;;;;;;24.84;42.67;99969.75;4279269;33;20016;-80
2022/08/04 00:10:09;;;;;;;;;;;;;;;24.93;41.18;99973.81;4306629;33;19992;-80
2022/08/04 00:12:41;;;;;;;;;;;;;;;24.92;42.13;99972.94;4297645;33;20021;-81
2022/08/04 00:15:10;;;;;;;;;;;;;;;24.77;42.24;99962.97;4297341;33;20052;-80
2022/08/04 00:17:48;;;;;;;;;;;;;;;24.92;41.51;99966.75;4302697;33;19980;-80
2022/08/04 00:20:17;;;;;;;;;;;;;;;24.75;41.31;99970.09;4296296;33;20052;-81
2022/08/04 00:22:45;;;;;;;;;;;;;;;24.71;41.93;99966.72;4298248;33;20039;-80
2022/08/04 00:25:12;;;;;;;;;;;;;;;24.59;42.95;99970.72;4306143;33;19995;-80
2022/08/04 00:27:38;;;;;;;;;;;;;;;24.53;43.19;99970.94;4311910;33;19990;-80
2022/08/04 00:30:06;;;;;;;;;;;;;;;24.79;41.60;99969.06;4307065;33;19976;-80
2022/08/04 00:32:33;;;;;;;;;;;;;;;24.70;42.62;99972.94;4299124;33;20028;-80
2022/08/04 00:35:00;;;;;;;;;;;;;;;24.72;42.84;99970.22;4303648;33;20031;-80
2022/08/04 00:37:27;;;;;;;;;;;;;;;24.63;42.04;99965.28;4296147;33;19977;-80
2022/08/04 00:39:55;;;;;;;;;;;;;;;24.58;42.80;99971.66;4297523;33;20323;-80
2022/08/04 00:42:21;;;;;;;;;;;;;;;24.65;42.77;99974.06;4300466;33;20525;-81
2022/08/04 00:44:58;;;;;;;;;;;;;;;24.78;42.36;99975.28;4302247;33;19989;-80
2022/08/04 00:47:28;;;;;;;;;;;;;;;24.46;42.62;99980.06;4297437;33;20047;-81
2022/08/04 00:49:55;;;;;;;;;;;;;;;24.49;42.65;99979.09;4301673;33;20021;-80
2022/08/04 00:52:41;;;;;;;;;;;;;;;24.45;43.11;99986.28;4300968;33;20007;-80
2022/08/04 00:55:11;;;;;;;;;;;;;;;24.50;43.03;99984.31;4295979;33;20004;-80
2022/08/04 00:57:48;;;;;;;;;;;;;;;24.23;43.57;99982.69;4296252;33;20306;-81
2022/08/04 01:00:17;;;;;;;;;;;;;;;24.29;43.84;99987.75;4296534;33;19997;-80
2022/08/04 01:02:50;;;;;;;;;;;;;;;24.34;43.58;99985.78;4298953;33;20051;-80
2022/08/04 01:05:20;;;;;;;;;;;;;;;24.23;44.21;99982.69;4302589;33;19999;-80
2022/08/04 01:07:56;;;;;;;;;;;;;;;24.28;44.17;99980.72;4296814;33;20040;-80
2022/08/04 01:10:27;;;;;;;;;;;;;;;24.36;44.12;99983.97;4296041;33;20328;-80
2022/08/04 01:13:07;;;;;;;;;;;;;;;24.32;44.10;99985.00;4297615;33;20006;-80
2022/08/04 01:15:45;;;;;;;;;;;;;;;24.24;44.42;99981.78;4304019;33;19999;-81
2022/08/04 01:18:36;;;;;;;;;;;;;;;24.07;44.94;99982.41;4304666;33;20016;-80
2022/08/04 01:21:22;;;;;;;;;;;;;;;23.89;45.51;99979.50;4296198;33;20004;-81
2022/08/04 01:23:49;;;;;;;;;;;;;;;23.94;45.49;99986.44;4297255;33;20006;-81
2022/08/04 01:26:35;;;;;;;;;;;;;;;23.91;45.33;99987.41;4297727;33;20003;-80
2022/08/04 01:29:17;;;;;;;;;;;;;;;23.78;45.74;99986.13;4303498;33;20048;-81
2022/08/04 01:31:53;;;;;;;;;;;;;;;23.91;45.68;99982.12;4297836;33;20003;-80
2022/08/04 01:34:21;;;;;;;;;;;;;;;23.74;46.03;99984.50;4302115;33;19980;-81
2022/08/04 01:36:59;;;;;;;;;;;;;;;23.83;45.46;99986.81;4296407;33;20068;-81
2022/08/04 01:39:42;;;;;;;;;;;;;;;23.81;45.47;99991.31;4296208;33;19972;-81
2022/08/04 01:42:09;;;;;;;;;;;;;;;23.80;45.79;99985.16;4299475;33;20040;-80
2022/08/04 01:44:39;;;;;;;;;;;;;;;23.70;45.85;99985.53;4296751;33;20036;-81
2022/08/04 01:47:06;;;;;;;;;;;;;;;23.71;45.46;99985.47;4295712;33;20000;-80
2022/08/04 01:49:33;;;;;;;;;;;;;;;23.71;45.55;99989.88;4305031;33;20037;-80
2022/08/04 01:52:07;;;;;;;;;;;;;;;23.74;45.46;99989.78;4296248;33;20004;-80
2022/08/04 01:54:36;;;;;;;;;;;;;;;23.83;45.42;99986.81;4296949;33;19985;-81
2022/08/04 01:57:04;;;;;;;;;;;;;;;23.74;45.52;99990.66;4296292;33;19992;-81
2022/08/04 01:59:51;;;;;;;;;;;;;;;23.80;45.36;99978.97;4296918;33;19977;-81
2022/08/04 02:02:25;;;;;;;;;;;;;;;23.73;45.58;99982.78;4295871;33;19988;-81
2022/08/04 02:04:52;;;;;;;;;;;;;;;23.67;45.55;99981.16;4295775;33;19997;-81
2022/08/04 02:07:26;;;;;;;;;;;;;;;23.67;45.93;99984.69;4297248;33;19992;-81
2022/08/04 02:10:12;;;;;;;;;;;;;;;23.65;46.21;99983.88;4296160;33;20363;-81
2022/08/04 02:12:55;;;;;;;;;;;;;;;23.56;46.18;99986.84;4304993;33;19988;-81
2022/08/04 02:15:25;;;;;;;;;;;;;;;23.60;45.55;99987.59;4296919;33;20032;-80
2022/08/04 02:17:59;;;;;;;;;;;;;;;23.49;46.64;99977.41;4305766;33;20059;-81
2022/08/04 02:20:33;;;;;;;;;;;;;;;23.46;46.40;99979.31;4296439;33;19991;-80
2022/08/04 02:23:03;;;;;;;;;;;;;;;23.59;46.27;99970.87;4299479;33;19988;-80
2022/08/04 02:25:32;;;;;;;;;;;;;;;23.70;45.63;99974.94;4300641;33;19991;-81
2022/08/04 02:27:59;;;;;;;;;;;;;;;23.45;46.59;99978.41;4295795;33;20043;-81
2022/08/04 02:30:33;;;;;;;;;;;;;;;23.46;46.84;99974.88;4301275;33;19984;-81
2022/08/04 02:33:01;;;;;;;;;;;;;;;23.47;46.60;99976.59;4287505;33;19987;-81
2022/08/04 02:35:28;;;;;;;;;;;;;;;23.44;46.90;99979.34;4303858;33;20095;-81
2022/08/04 02:38:00;;;;;;;;;;;;;;;23.47;46.84;99976.59;4295755;33;19984;-81
2022/08/04 02:40:27;;;;;;;;;;;;;;;23.45;46.95;99973.13;4295829;33;19977;-81
2022/08/04 02:42:54;;;;;;;;;;;;;;;23.46;47.42;99974.88;4303478;33;19988;-80
2022/08/04 02:45:21;;;;;;;;;;;;;;;23.55;47.03;99974.56;4295739;33;20522;-80
2022/08/04 02:47:48;;;;;;;;;;;;;;;23.34;47.87;99980.56;4295972;33;19984;-82
2022/08/04 02:50:35;;;;;;;;;;;;;;;23.41;47.60;99975.03;4295754;33;19984;-82
2022/08/04 02:53:02;;;;;;;;;;;;;;;23.25;47.88;99973.81;4279963;33;19984;-80
2022/08/04 02:55:35;;;;;;;;;;;;;;;23.15;48.43;99970.63;4295813;33;19995;-80
2022/08/04 02:58:03;;;;;;;;;;;;;;;23.20;48.23;99968.72;4295638;33;19984;-80
2022/08/04 03:00:30;;;;;;;;;;;;;;;23.16;48.19;99972.34;4300663;33;19990;-80
2022/08/04 03:03:04;;;;;;;;;;;;;;;23.24;47.71;99965.97;4309885;33;20011;-80
2022/08/04 03:05:37;;;;;;;;;;;;;;;23.33;47.95;99965.66;4311198;33;19984;-80
2022/08/04 03:08:23;;;;;;;;;;;;;;;23.19;48.36;99972.25;4309983;33;19988;-80
2022/08/04 03:11:04;;;;;;;;;;;;;;;23.14;48.46;99968.06;4298882;33;19997;-80
2022/08/04 03:13:35;;;;;;;;;;;;;;;23.28;48.19;99975.50;4309954;33;20002;-80
2022/08/04 03:16:02;;;;;;;;;;;;;;;23.19;48.52;99972.25;4308739;33;19976;-80
2022/08/04 03:18:48;;;;;;;;;;;;;;;23.16;48.90;99975.00;4302948;33;20352;-81
2022/08/04 03:21:15;;;;;;;;;;;;;;;23.05;49.03;99969.22;4299257;33;19980;-81
2022/08/04 03:23:53;;;;;;;;;;;;;;;22.80;50.23;99978.81;4140727;33;5091512;-81
2022/08/04 03:26:39;;;;;;;;;;;;;;;22.96;49.24;99964.22;4301651;33;20007;-82
2022/08/04 03:29:22;;;;;;;;;;;;;;;22.94;49.94;99966.94;4296202;33;20429;-80
2022/08/04 03:32:02;;;;;;;;;;;;;;;23.18;48.74;99980.22;4297163;33;20113;-80
2022/08/04 03:34:39;;;;;;;;;;;;;;;23.08;49.41;99979.69;4298294;33;20049;-80
2022/08/04 03:37:07;;;;;;;;;;;;;;;23.03;49.62;99976.31;4285167;33;19988;-81
2022/08/04 03:39:49;;;;;;;;;;;;;;;23.18;49.30;99983.72;4300019;33;20320;-80
2022/08/04 03:42:22;;;;;;;;;;;;;;;23.07;49.70;99972.69;4306392;33;20386;-80
2022/08/04 03:45:11;;;;;;;;;;;;;;;23.07;49.92;99977.97;4299197;33;20044;-80
2022/08/04 03:47:49;;;;;;;;;;;;;;;23.02;50.35;99979.88;4306165;33;19995;-80
2022/08/04 03:50:25;;;;;;;;;;;;;;;22.94;50.81;99988.06;4297057;33;20052;-80
2022/08/04 03:53:12;;;;;;;;;;;;;;;22.99;50.77;99982.62;4311131;33;20040;-80
2022/08/04 03:56:04;;;;;;;;;;;;;;;23.12;50.40;99981.28;4295762;33;19995;-80
2022/08/04 03:58:53;;;;;;;;;;;;;;;22.92;51.28;99983.69;4311083;33;20020;-81
2022/08/04 04:01:34;;;;;;;;;;;;;;;22.97;51.27;99981.78;4291606;33;19996;-81
2022/08/04 04:04:32;;;;;;;;;;;;;;;23.09;51.33;99986.69;4306485;33;19976;-81
2022/08/04 04:07:02;;;;;;;;;;;;;;;23.04;51.83;99991.25;4302876;33;20071;-80
2022/08/04 04:09:46;;;;;;;;;;;;;;;23.26;50.68;99988.78;4290315;33;19990;-80
2022/08/04 04:12:38;;;;;;;;;;;;;;;23.17;51.36;99992.59;4303189;33;20039;-80
2022/08/04 04:15:11;;;;;;;;;;;;;;;23.32;51.08;99988.53;4296422;33;20052;-80
2022/08/04 04:17:45;;;;;;;;;;;;;;;23.48;50.73;99999.44;4301710;33;19999;-81
2022/08/04 04:20:25;;;;;;;;;;;;;;;23.63;50.64;99993.63;4299181;33;20354;-80
2022/08/04 04:23:11;;;;;;;;;;;;;;;23.44;51.79;99995.19;4296410;33;19983;-80
2022/08/04 04:25:49;;;;;;;;;;;;;;;23.52;51.96;99995.81;4305408;33;20039;-80
2022/08/04 04:28:35;;;;;;;;;;;;;;;23.63;52.07;99993.63;4312606;33;19976;-80
2022/08/04 04:31:23;;;;;;;;;;;;;;;23.69;51.76;99992.59;4310938;33;19998;-80
2022/08/04 04:34:22;;;;;;;;;;;;;;;23.70;51.95;99993.44;4312444;33;20002;-81
2022/08/04 04:36:52;;;;;;;;;;;;;;;23.77;51.78;99990.56;4270685;33;19984;-80
2022/08/04 04:39:25;;;;;;;;;;;;;;;23.87;51.83;99991.09;4297451;33;20351;-79
2022/08/04 04:41:56;;;;;;;;;;;;;;;23.86;52.29;99999.91;4298377;33;20028;-80
2022/08/04 04:44:29;;;;;;;;;;;;;;;23.81;52.20;99999.25;4302609;33;20008;-79
2022/08/04 04:47:17;;;;;;;;;;;;;;;23.91;51.76;100003.28;4304911;33;19977;-79
2022/08/04 04:50:14;;;;;;;;;;;;;;;24.03;51.61;100001.97;4311071;33;20069;-81
2022/08/04 04:52:46;;;;;;;;;;;;;;;24.15;51.12;100006.78;4307021;33;19984;-79
2022/08/04 04:55:20;;;;;;;;;;;;;;;24.25;51.26;100007.28;4302651;33;20002;-80
2022/08/04 04:57:49;;;;;;;;;;;;;;;24.22;51.30;100002.13;4299474;33;20035;-79
2022/08/04 05:00:22;;;;;;;;;;;;;;;24.27;51.49;100005.47;4300048;33;19980;-81
2022/08/04 05:03:01;;;;;;;;;;;;;;;24.31;51.27;100007.06;4295983;33;19992;-81
2022/08/04 05:05:37;;;;;;;;;;;;;;;24.45;50.70;100010.09;4297477;33;20007;-81
2022/08/04 05:08:11;;;;;;;;;;;;;;;24.50;50.99;100015.19;4298676;33;19993;-81
2022/08/04 05:11:19;;;;;;;;;;;;;;;24.51;51.61;100012.50;4301064;33;19984;-80
2022/08/04 05:13:47;;;;;;;;;;;;;;;24.59;51.71;100007.78;4296297;33;20035;-80
2022/08/04 05:16:35;;;;;;;;;;;;;;;24.74;51.58;100016.06;4304407;33;20135;-80
2022/08/04 05:19:08;;;;;;;;;;;;;;;24.73;51.89;100022.25;4295833;33;19984;-79
2022/08/04 05:21:35;;;;;;;;;;;;;;;24.82;51.72;100008.66;4303607;33;19988;-79
2022/08/04 05:24:04;;;;;;;;;;;;;;;24.87;50.96;100025.22;4298941;33;20006;-80
2022/08/04 05:26:31;;;;;;;;;;;;;;;24.91;49.43;100018.00;4303545;33;20063;-80
2022/08/04 05:29:01;;;;;;;;;;;;;;;24.94;47.95;100018.75;4311500;33;20024;-79
2022/08/04 05:31:31;;;;;;;;;;;;;;;24.91;47.24;100024.16;4305485;33;20347;-81
2022/08/04 05:33:59;;;;;;;;;;;;;;;25.17;46.83;100024.94;4300059;33;20008;-81
2022/08/04 05:36:32;;;;;;;;;;;;;;;25.36;46.17;100025.03;4297572;33;19980;-81
2022/08/04 05:39:13;;;;;;;;;;;;;;;25.36;45.08;100028.53;4301179;33;20012;-81
2022/08/04 05:41:40;;;;;;;;;;;;;;;25.49;44.69;100027.13;4296955;33;20331;-81
2022/08/04 05:44:17;;;;;;;;;;;;;;;25.20;44.07;100024.81;4303622;33;19989;-80
2022/08/04 05:46:48;;;;;;;;;;;;;;;25.43;42.77;100027.37;4301716;33;19985;-81
2022/08/04 05:49:21;;;;;;;;;;;;;;;25.50;42.37;100031.47;4304502;33;19980;-80
2022/08/04 05:51:47;;;;;;;;;;;;;;;25.55;40.69;100035.72;4296176;33;19993;-81
2022/08/04 05:54:16;;;;;;;;;;;;;;;25.42;41.90;100036.22;4292625;33;20354;-81
2022/08/04 05:56:43;;;;;;;;;;;;;;;25.73;41.29;100032.28;4296152;33;19996;-78
2022/08/04 05:59:10;;;;;;;;;;;;;;;25.92;39.89;100029.72;4303067;33;20000;-79
2022/08/04 06:01:36;;;;;;;;;;;;;;;25.78;40.33;100032.94;4281842;33;20331;-79
2022/08/04 06:04:41;;;;;;;;;;;;;;;25.95;40.72;100029.59;4290804;33;19984;-79
2022/08/04 06:07:10;;;;;;;;;;;;;;;26.13;39.95;100034.09;4281717;33;19992;-78
2022/08/04 06:09:37;;;;;;;;;;;;;;;25.97;40.11;100030.37;4278459;33;20422;-78
2022/08/04 06:12:06;;;;;;;;;;;;;;;26.16;40.17;100033.94;4281194;33;20450;-79
2022/08/04 06:14:42;;;;;;;;;;;;;;;26.00;39.50;100037.34;4281095;33;20044;-79
2022/08/04 06:17:15;;;;;;;;;;;;;;;26.21;39.32;100031.94;4282169;33;19981;-78
2022/08/04 06:20:02;;;;;;;;;;;;;;;26.25;39.70;100031.78;4280905;33;19988;-78
2022/08/04 06:22:47;;;;;;;;;;;;;;;26.49;38.61;100040.47;4282941;33;20003;-78
2022/08/04 06:25:15;;;;;;;;;;;;;;;26.59;37.71;100041.75;4280985;33;20308;-79
2022/08/04 06:27:41;;;;;;;;;;;;;;;26.63;38.36;100038.00;4280715;33;19989;-79
2022/08/04 06:30:13;;;;;;;;;;;;;;;26.46;39.00;100040.56;4282168;33;20083;-78
2022/08/04 06:32:47;;;;;;;;;;;;;;;26.81;37.69;100037.13;4280969;33;19989;-78
2022/08/04 06:35:16;;;;;;;;;;;;;;;26.87;37.05;100034.19;4286964;33;20048;-80
2022/08/04 06:37:44;;;;;;;;;;;;;;;27.23;37.34;100036.00;4295420;33;20650;-81
2022/08/04 06:40:12;;;;;;;;;;;;;;;27.29;36.86;100041.03;4295476;33;19995;-79
2022/08/04 06:42:58;;;;;;;;;;;;;;;27.61;36.61;100041.19;4289691;33;20323;-82
2022/08/04 06:45:24;;;;;;;;;;;;;;;28.03;36.14;100029.28;4282897;33;20059;-82
2022/08/04 06:47:51;;;;;;;;;;;;;;;28.27;35.41;100033.31;4287156;33;19981;-80
2022/08/04 06:50:18;;;;;;;;;;;;;;;28.88;33.46;100030.87;4280660;33;19991;-83
2022/08/04 06:53:05;;;;;;;;;;;;;;;29.16;33.40;100033.72;4284315;33;20374;-84
2022/08/04 06:55:32;;;;;;;;;;;;;;;29.57;32.33;100027.72;4291267;33;19989;-84
2022/08/04 06:57:59;;;;;;;;;;;;;;;29.69;32.91;100033.34;4290012;33;20004;-83
2022/08/04 07:00:29;;;;;;;;;;;;;;;30.02;31.34;100030.41;4300812;33;19976;-81
2022/08/04 07:02:56;;;;;;;;;;;;;;;30.32;32.13;100030.37;4300266;33;20008;-81
2022/08/04 07:05:23;;;;;;;;;;;;;;;30.79;30.70;100034.50;4280625;33;20045;-82
2022/08/04 07:07:50;;;;;;;;;;;;;;;30.64;31.14;100024.78;4289368;33;20004;-81
2022/08/04 07:10:25;;;;;;;;;;;;;;;31.03;31.22;100032.03;4281331;33;20267;-81
2022/08/04 07:12:51;;;;;;;;;;;;;;;31.19;30.02;100031.88;4274647;33;20001;-81
2022/08/04 07:15:19;;;;;;;;;;;;;;;31.12;31.03;100030.59;4284806;33;19988;-81
2022/08/04 07:17:46;;;;;;;;;;;;;;;31.46;31.70;100035.44;4288196;33;19985;-83
2022/08/04 07:20:18;;;;;;;;;;;;;;;31.78;30.52;100029.69;4280524;33;19973;-82
2022/08/04 07:23:05;;;;;;;;;;;;;;;32.01;30.71;100032.63;4282050;33;20056;-83
2022/08/04 07:25:32;;;;;;;;;;;;;;;32.15;29.53;100022.63;4280473;33;20052;-81
2022/08/04 07:28:20;;;;;;;;;;;;;;;32.31;28.62;100033.09;4289751;33;20768;-82
2022/08/04 07:30:47;;;;;;;;;;;;;;;32.55;27.92;100040.41;4281814;33;20066;-80
2022/08/04 07:33:17;;;;;;;;;;;;;;;32.59;28.20;100025.81;4282955;33;20002;-82
2022/08/04 07:35:44;;;;;;;;;;;;;;;32.62;29.43;100025.59;4286676;33;20033;-80
2022/08/04 07:38:31;;;;;;;;;;;;;;;32.97;28.14;100019.50;4281904;33;20037;-79
2022/08/04 07:40:58;;;;;;;;;;;;;;;32.96;26.97;100023.09;4281158;33;19996;-82
2022/08/04 07:43:26;;;;;;;;;;;;;;;33.20;26.80;100026.66;4284939;33;19981;-82
2022/08/04 07:45:53;;;;;;;;;;;;;;;33.15;25.65;100018.09;4294553;33;19988;-82
2022/08/04 07:48:22;;;;;;;;;;;;;;;33.14;27.39;100015.53;4294639;33;19988;-81
2022/08/04 07:50:49;;;;;;;;;;;;;;;33.62;25.82;100021.69;4300866;33;20043;-80
2022/08/04 07:53:16;;;;;;;;;;;;;;;33.76;26.30;100013.44;4320735;33;19992;-82
2022/08/04 07:56:03;;;;;;;;;;;;;;;33.49;25.89;100015.53;4307528;33;19987;-83
2022/08/04 07:58:29;;;;;;;;;;;;;;;33.84;25.93;100014.66;4310281;33;19980;-82
2022/08/04 08:00:56;;;;;;;;;;;;;;;34.20;24.50;100011.78;4301113;33;20957;-82
2022/08/04 08:03:24;;;;;;;;;;;;;;;34.09;24.74;100009.09;4281607;33;20049;-82
2022/08/04 08:05:51;;;;;;;;;;;;;;;34.32;24.63;100009.94;4273319;33;19997;-82
2022/08/04 08:08:38;;;;;;;;;;;;;;;34.23;23.80;100016.91;4266115;33;20003;-82
2022/08/04 08:11:06;;;;;;;;;;;;;;;34.20;25.63;100009.09;4268087;33;19990;-82
2022/08/04 08:13:32;;;;;;;;;;;;;;;34.48;25.82;100015.78;4281594;33;19989;-82
2022/08/04 08:16:00;;;;;;;;;;;;;;;34.21;24.99;100013.50;4277976;33;20366;-79
2022/08/04 08:18:26;;;;;;;;;;;;;;;34.70;23.47;100009.56;4273525;33;20013;-80
2022/08/04 08:20:54;;;;;;;;;;;;;;;34.55;24.56;100016.19;4273647;33;19989;-81
2022/08/04 08:23:21;;;;;;;;;;;;;;;34.74;23.45;100009.28;4293030;33;20028;-80
2022/08/04 08:25:50;;;;;;;;;;;;;;;34.85;23.81;100017.34;4267483;33;19985;-81
2022/08/04 08:28:17;;;;;;;;;;;;;;;34.93;23.47;100020.25;4271555;33;19997;-80
2022/08/04 08:30:44;;;;;;;;;;;;;;;34.85;23.45;100011.97;4267328;33;19989;-80
2022/08/04 08:33:18;;;;;;;;;;;;;;;35.10;23.30;100013.47;4277729;33;19993;-80
2022/08/04 08:35:48;;;;;;;;;;;;;;;35.21;22.58;100007.22;4296659;33;19985;-80
2022/08/04 08:38:23;;;;;;;;;;;;;;;34.74;23.77;100014.69;4296424;33;20055;-80
2022/08/04 08:41:17;;;;;;;;;;;;;;;35.02;23.35;100013.25;4273516;33;19974;-80
2022/08/04 08:43:48;;;;;;;;;;;;;;;35.07;22.80;100017.31;4263311;33;19973;-81
2022/08/04 08:46:42;;;;;;;;;;;;;;;35.29;23.30;100015.47;4132850;33;20233;-80
2022/08/04 08:49:19;;;;;;;;;;;;;;;34.65;24.34;100010.91;4262707;33;20059;-81
2022/08/04 08:52:12;;;;;;;;;;;;;;;35.15;25.00;100009.44;4302034;33;20008;-81
2022/08/04 08:54:51;;;;;;;;;;;;;;;35.85;22.33;100015.19;4294380;33;20326;-80
2022/08/04 08:57:31;;;;;;;;;;;;;;;35.40;23.03;100012.75;4301889;33;19999;-80
2022/08/04 09:00:09;;;;;;;;;;;;;;;35.57;22.53;100014.88;4134372;33;20101;-81
2022/08/04 09:02:48;;;;;;;;;;;;;;;35.57;22.64;100014.03;4281575;33;19995;-81
2022/08/04 09:05:49;;;;;;;;;;;;;;;35.75;23.18;100004.38;4273031;33;20523;-81
2022/08/04 09:08:35;;;;;;;;;;;;;;;35.74;23.40;100001.78;4288976;33;19999;-80
2022/08/04 09:11:01;;;;;;;;;;;;;;;35.73;21.79;100008.16;4283177;33;20041;-80
2022/08/04 09:13:29;;;;;;;;;;;;;;;35.90;23.54;100010.28;4282781;33;20472;-80
2022/08/04 09:15:58;;;;;;;;;;;;;;;36.15;21.14;100010.81;4289463;33;20025;-81
2022/08/04 09:18:33;;;;;;;;;;;;;;;35.89;23.38;100008.53;4282040;33;20049;-80
2022/08/04 09:21:23;;;;;;;;;;;;;;;35.92;23.15;100019.03;4277472;33;19985;-80
2022/08/04 09:23:58;;;;;;;;;;;;;;;36.25;22.79;100011.69;4283018;33;20036;-81
2022/08/04 09:26:25;;;;;;;;;;;;;;;36.00;23.53;100005.78;4302557;33;19988;-80
2022/08/04 09:29:00;;;;;;;;;;;;;;;36.52;21.59;100001.19;4297176;33;20024;-81
2022/08/04 09:31:32;;;;;;;;;;;;;;;36.38;21.31;99997.97;4297376;33;20048;-80
2022/08/04 09:34:25;;;;;;;;;;;;;;;36.55;20.77;99998.22;4303896;33;19989;-81
2022/08/04 09:36:55;;;;;;;;;;;;;;;35.98;21.72;99999.66;4296077;33;19988;-81
2022/08/04 09:39:28;;;;;;;;;;;;;;;35.95;21.18;100008.00;4296192;33;20000;-80
2022/08/04 09:42:08;;;;;;;;;;;;;;;35.90;22.83;99994.09;4297820;33;20381;-81
2022/08/04 09:44:45;;;;;;;;;;;;;;;35.86;22.23;100003.41;4303674;33;19988;-81
2022/08/04 09:47:26;;;;;;;;;;;;;;;36.28;20.73;99997.94;4296682;33;19984;-81
2022/08/04 09:50:08;;;;;;;;;;;;;;;35.96;22.25;99988.19;4298573;33;20032;-80
2022/08/04 09:52:55;;;;;;;;;;;;;;;36.43;21.87;99985.81;4303669;33;19995;-80
2022/08/04 09:55:40;;;;;;;;;;;;;;;36.19;22.39;99988.03;4266238;33;20433;-80
2022/08/04 09:58:23;;;;;;;;;;;;;;;36.62;21.16;99989.56;4296680;33;19989;-81
2022/08/04 10:00:52;;;;;;;;;;;;;;;36.79;20.94;99978.06;4302737;33;20024;-80
2022/08/04 10:03:22;;;;;;;;;;;;;;;36.75;20.92;99974.81;4300850;33;19999;-81
2022/08/04 10:05:52;;;;;;;;;;;;;;;36.95;20.20;99970.31;4310695;33;20849;-81
2022/08/04 10:08:29;;;;;;;;;;;;;;;36.68;21.04;99972.84;4310203;33;19988;-81
2022/08/04 10:11:15;;;;;;;;;;;;;;;36.98;20.86;99970.06;4309189;33;20349;-81
2022/08/04 10:13:58;;;;;;;;;;;;;;;36.53;21.94;99975.91;4302239;33;20043;-81
2022/08/04 10:16:37;;;;;;;;;;;;;;;36.79;20.76;99964.59;4297638;33;19984;-81
2022/08/04 10:19:14;;;;;;;;;;;;;;;37.21;20.96;99970.59;4295658;33;19988;-82
2022/08/04 10:21:44;;;;;;;;;;;;;;;37.02;21.18;99969.78;4301470;33;19988;-80
2022/08/04 10:24:46;;;;;;;;;;;;;;;36.71;21.83;99959.91;4298635;33;19988;-80
2022/08/04 10:27:21;;;;;;;;;;;;;;;36.35;23.26;99956.00;4303458;33;19981;-82
2022/08/04 10:29:48;;;;;;;;;;;;;;;36.67;20.26;99958.50;4297594;33;20337;-81
2022/08/04 10:32:34;;;;;;;;;;;;;;;36.52;21.02;99963.44;4296886;33;19976;-80
2022/08/04 10:35:08;;;;;;;;;;;;;;;35.90;22.86;99967.16;4312299;33;19984;-81
2022/08/04 10:37:45;;;;;;;;;;;;;;;35.58;22.86;99957.34;4305434;33;20310;-81
2022/08/04 10:40:39;;;;;;;;;;;;;;;36.05;22.93;99957.72;4292817;33;20424;-80
2022/08/04 10:43:13;;;;;;;;;;;;;;;36.41;21.81;99949.16;4302872;33;20811;-80
2022/08/04 10:45:50;;;;;;;;;;;;;;;36.38;21.24;99944.94;4297388;33;20398;-81
2022/08/04 10:48:35;;;;;;;;;;;;;;;36.57;21.94;99943.28;4297331;33;20267;-80
2022/08/04 10:51:02;;;;;;;;;;;;;;;36.87;20.05;99940.47;4300456;33;20083;-81
2022/08/04 10:53:29;;;;;;;;;;;;;;;36.96;21.76;99939.63;4299499;33;20070;-81
2022/08/04 10:56:16;;;;;;;;;;;;;;;37.20;21.24;99935.62;4303971;33;20039;-81
2022/08/04 10:58:49;;;;;;;;;;;;;;;37.44;20.98;99944.12;4299047;33;19991;-82
2022/08/04 11:01:19;;;;;;;;;;;;;;;37.51;19.78;99930.06;4316503;33;19988;-82
2022/08/04 11:04:25;;;;;;;;;;;;;;;37.83;19.29;99933.22;4324606;33;19995;-82
2022/08/04 11:06:54;;;;;;;;;;;;;;;37.56;19.93;99925.06;4324247;33;20058;-82
2022/08/04 11:09:21;;;;;;;;;;;;;;;36.85;20.08;99931.66;4326318;33;19994;-80
2022/08/04 11:12:00;;;;;;;;;;;;;;;36.71;19.94;99924.00;4301793;33;20390;-80
2022/08/04 11:14:31;;;;;;;;;;;;;;;37.21;21.29;99931.97;4309872;33;20002;-80
2022/08/04 11:16:58;;;;;;;;;;;;;;;36.84;21.04;99929.09;4305365;33;20346;-80
2022/08/04 11:19:43;;;;;;;;;;;;;;;36.91;21.03;99931.09;4301042;33;19980;-80
2022/08/04 11:22:21;;;;;;;;;;;;;;;37.04;20.03;99921.88;4293419;33;20002;-80
2022/08/04 11:24:51;;;;;;;;;;;;;;;36.85;21.36;99920.84;4309995;33;19975;-80
2022/08/04 11:27:25;;;;;;;;;;;;;;;37.26;20.44;99924.25;4325383;33;20019;-80
2022/08/04 11:30:03;;;;;;;;;;;;;;;37.22;20.45;99917.44;4314595;33;19988;-82
2022/08/04 11:32:35;;;;;;;;;;;;;;;37.69;19.21;99922.91;4302723;33;20524;-81
2022/08/04 11:35:03;;;;;;;;;;;;;;;37.49;19.21;99929.34;4315050;33;19989;-81
2022/08/04 11:37:46;;;;;;;;;;;;;;;37.42;19.95;99912.84;4307811;33;20011;-81
2022/08/04 11:40:23;;;;;;;;;;;;;;;37.75;18.99;99918.75;4291003;33;20439;-82
2022/08/04 11:42:52;;;;;;;;;;;;;;;37.45;19.74;99913.44;4304241;33;20418;-82
2022/08/04 11:45:23;;;;;;;;;;;;;;;37.17;19.55;99911.63;4295404;33;19988;-82
2022/08/04 11:47:52;;;;;;;;;;;;;;;37.44;19.01;99903.63;4302780;33;20330;-81
2022/08/04 11:50:20;;;;;;;;;;;;;;;37.68;19.24;99902.28;4303495;33;20685;-82
2022/08/04 11:52:48;;;;;;;;;;;;;;;37.25;19.18;99900.97;4310041;33;20008;-81
2022/08/04 11:55:16;;;;;;;;;;;;;;;37.15;20.51;99894.75;4311401;33;20369;-82
2022/08/04 11:57:43;;;;;;;;;;;;;;;35.90;20.75;99890.84;4310645;33;20047;-81
2022/08/04 12:00:19;;;;;;;;;;;;;;;36.91;19.95;99887.91;4307792;33;19991;-82
2022/08/04 12:03:05;;;;;;;;;;;;;;;36.57;21.77;99883.94;4308021;33;20295;-81
2022/08/04 12:05:45;;;;;;;;;;;;;;;36.26;20.36;99882.19;4308806;33;19999;-81
2022/08/04 12:08:18;;;;;;;;;;;;;;;36.21;20.06;99878.19;4310649;33;19984;-81
2022/08/04 12:10:51;;;;;;;;;;;;;;;36.16;21.84;99880.47;4311714;33;20031;-80
2022/08/04 12:13:39;;;;;;;;;;;;;;;36.49;20.00;99879.22;4308963;33;20335;-80
2022/08/04 12:16:09;;;;;;;;;;;;;;;37.04;18.89;99876.00;4301214;33;20865;-80
2022/08/04 12:18:38;;;;;;;;;;;;;;;37.31;18.99;99861.75;4315305;33;19996;-81
2022/08/04 12:21:10;;;;;;;;;;;;;;;37.51;19.13;99860.69;4283225;33;860501;-82
2022/08/04 12:23:42;;;;;;;;;;;;;;;36.86;19.97;99865.91;4309148;33;19997;-82
2022/08/04 12:26:14;;;;;;;;;;;;;;;36.57;19.56;99870.44;4302382;33;20035;-82
2022/08/04 12:28:42;;;;;;;;;;;;;;;36.59;20.48;99869.31;4304476;33;20028;-82
2022/08/04 12:31:30;;;;;;;;;;;;;;;36.69;19.32;99866.63;4297547;33;19985;-84
2022/08/04 12:33:58;;;;;;;;;;;;;;;37.02;19.79;99861.81;4304616;33;20007;-84
2022/08/04 12:36:54;;;;;;;;;;;;;;;37.25;19.48;99863.16;4319636;33;19988;-82
2022/08/04 12:39:22;;;;;;;;;;;;;;;36.75;21.77;99861.50;4318435;33;19988;-80
2022/08/04 12:42:03;;;;;;;;;;;;;;;37.41;19.92;99857.16;4319124;33;20011;-82
2022/08/04 12:44:32;;;;;;;;;;;;;;;37.59;18.65;99854.53;4315115;33;19979;-82
2022/08/04 12:47:08;;;;;;;;;;;;;;;37.20;19.07;99850.09;4317152;33;20006;-81
2022/08/04 12:50:02;;;;;;;;;;;;;;;36.88;19.48;99844.16;4318188;33;19999;-81
2022/08/04 12:52:30;;;;;;;;;;;;;;;36.47;20.62;99836.25;4317459;33;19998;-81
2022/08/04 12:55:17;;;;;;;;;;;;;;;36.79;19.45;99840.47;4314432;33;19993;-83
2022/08/04 12:57:44;;;;;;;;;;;;;;;37.13;20.46;99837.34;4314145;33;20358;-82
2022/08/04 13:00:11;;;;;;;;;;;;;;;37.29;19.14;99837.56;4317632;33;20002;-83
2022/08/04 13:02:41;;;;;;;;;;;;;;;37.44;18.48;99846.91;4318355;33;19995;-82
2022/08/04 13:05:08;;;;;;;;;;;;;;;35.53;21.25;99834.88;4301222;33;20000;-82
2022/08/04 13:07:52;;;;;;;;;;;;;;;35.84;21.96;99843.78;4315299;33;19992;-83
2022/08/04 13:10:22;;;;;;;;;;;;;;;36.74;20.27;99834.69;4286048;33;20000;-84
2022/08/04 13:12:58;;;;;;;;;;;;;;;36.00;20.57;99833.31;4316653;33;19995;-81
2022/08/04 13:15:26;;;;;;;;;;;;;;;35.86;21.45;99831.00;4318000;33;19980;-84
2022/08/04 13:17:54;;;;;;;;;;;;;;;36.22;20.66;99836.78;4315399;33;20068;-84
2022/08/04 13:20:26;;;;;;;;;;;;;;;36.74;20.24;99826.59;4317800;33;19984;-83
2022/08/04 13:23:07;;;;;;;;;;;;;;;35.88;21.16;99828.19;4315305;33;20379;-83